Disclaimer

Please do not use the information listed here in-flight or in-navigation, as they are not provided to us by the airports but are provided by volunteers, so they might be outdated.

Search


Regions


Airport information page

No radio frequency information is available.

Airport informations:
Latitude: 11° 09' 36.20" N
Longitude: 004° 19' 51.49" W
Elevation: 1511 feet - 461 meters
Operating hours: Remarks
Operating agency: Civil government, landing fees and diplomatic clearance may be required
Timezone: UTC 0
Fuel: Jet A1+, Jet A1 with icing inhibitor.

100/130 MIL Spec, low lead, aviation gasoline (BLUE)

Runway information:
06/24 - 10826 x 148 feet< - >3300 x 45 meters

Recent METARs:
DFOO 131300Z 10006KT 020V170 FEW020 34/15 Q1011
DFOO 131500Z 12005KT 050V190 FEW020 34/15 Q1009
DFOO 131500Z 12005KT 050V190 FEW020 34/15 Q1009

Airport on the map: